sensor_id;sensor_type;location;lat;lon;timestamp;P1;durP1;ratioP1;P2;durP2;ratioP2
61915;SDS011;47868;51.326;6.550;2022-12-07T00:01:24;17.15;;;14.35;;
61915;SDS011;47868;51.326;6.550;2022-12-07T00:03:51;16.10;;;13.38;;
61915;SDS011;47868;51.326;6.550;2022-12-07T00:06:18;19.10;;;14.93;;
61915;SDS011;47868;51.326;6.550;2022-12-07T00:08:44;17.38;;;14.07;;
61915;SDS011;47868;51.326;6.550;2022-12-07T00:11:12;21.23;;;14.43;;
61915;SDS011;47868;51.326;6.550;2022-12-07T00:13:38;17.00;;;13.60;;
61915;SDS011;47868;51.326;6.550;2022-12-07T00:16:08;18.02;;;13.45;;
61915;SDS011;47868;51.326;6.550;2022-12-07T00:18:34;16.52;;;14.65;;
61915;SDS011;47868;51.326;6.550;2022-12-07T00:21:04;17.65;;;14.80;;
61915;SDS011;47868;51.326;6.550;2022-12-07T00:23:31;15.88;;;13.90;;
61915;SDS011;47868;51.326;6.550;2022-12-07T00:26:02;15.27;;;13.65;;
61915;SDS011;47868;51.326;6.550;2022-12-07T00:28:28;17.10;;;14.50;;
61915;SDS011;47868;51.326;6.550;2022-12-07T00:31:02;17.33;;;14.50;;
61915;SDS011;47868;51.326;6.550;2022-12-07T00:33:28;16.50;;;14.70;;
61915;SDS011;47868;51.326;6.550;2022-12-07T00:35:55;18.35;;;14.93;;
61915;SDS011;47868;51.326;6.550;2022-12-07T00:38:21;17.35;;;14.40;;
61915;SDS011;47868;51.326;6.550;2022-12-07T00:40:53;17.10;;;14.68;;
61915;SDS011;47868;51.326;6.550;2022-12-07T00:43:19;18.30;;;14.43;;
61915;SDS011;47868;51.326;6.550;2022-12-07T00:45:45;18.92;;;14.25;;
61915;SDS011;47868;51.326;6.550;2022-12-07T00:48:11;18.98;;;15.15;;
61915;SDS011;47868;51.326;6.550;2022-12-07T00:50:37;19.50;;;15.32;;
61915;SDS011;47868;51.326;6.550;2022-12-07T00:53:03;22.30;;;14.80;;
61915;SDS011;47868;51.326;6.550;2022-12-07T00:55:32;17.50;;;15.13;;
61915;SDS011;47868;51.326;6.550;2022-12-07T00:57:58;17.65;;;14.23;;
61915;SDS011;47868;51.326;6.550;2022-12-07T01:00:24;19.83;;;14.80;;
61915;SDS011;47868;51.326;6.550;2022-12-07T01:02:50;18.67;;;15.07;;
61915;SDS011;47868;51.326;6.550;2022-12-07T01:05:16;18.10;;;14.40;;
61915;SDS011;47868;51.326;6.550;2022-12-07T01:07:42;18.80;;;14.10;;
61915;SDS011;47868;51.326;6.550;2022-12-07T01:10:08;19.60;;;14.73;;
61915;SDS011;47868;51.326;6.550;2022-12-07T01:12:34;16.13;;;14.38;;
61915;SDS011;47868;51.326;6.550;2022-12-07T01:15:00;17.98;;;15.23;;
61915;SDS011;47868;51.326;6.550;2022-12-07T01:17:26;21.13;;;15.27;;
61915;SDS011;47868;51.326;6.550;2022-12-07T01:19:53;17.00;;;15.00;;
61915;SDS011;47868;51.326;6.550;2022-12-07T01:22:19;24.38;;;16.33;;
61915;SDS011;47868;51.326;6.550;2022-12-07T01:24:45;20.75;;;16.38;;
61915;SDS011;47868;51.326;6.550;2022-12-07T01:27:12;15.75;;;13.98;;
61915;SDS011;47868;51.326;6.550;2022-12-07T01:29:38;19.83;;;15.35;;
61915;SDS011;47868;51.326;6.550;2022-12-07T01:32:04;16.83;;;14.95;;
61915;SDS011;47868;51.326;6.550;2022-12-07T01:34:30;19.63;;;15.55;;
61915;SDS011;47868;51.326;6.550;2022-12-07T01:36:56;16.95;;;14.43;;
61915;SDS011;47868;51.326;6.550;2022-12-07T01:39:22;20.98;;;15.23;;
61915;SDS011;47868;51.326;6.550;2022-12-07T01:41:48;19.85;;;14.82;;
61915;SDS011;47868;51.326;6.550;2022-12-07T01:44:19;17.30;;;15.60;;
61915;SDS011;47868;51.326;6.550;2022-12-07T01:46:46;19.73;;;16.30;;
61915;SDS011;47868;51.326;6.550;2022-12-07T01:49:55;17.30;;;14.93;;
61915;SDS011;47868;51.326;6.550;2022-12-07T01:54:44;18.05;;;15.02;;
61915;SDS011;47868;51.326;6.550;2022-12-07T01:57:10;16.45;;;14.57;;
61915;SDS011;47868;51.326;6.550;2022-12-07T01:59:37;20.17;;;15.35;;
61915;SDS011;47868;51.326;6.550;2022-12-07T02:02:04;16.20;;;14.60;;
61915;SDS011;47868;51.326;6.550;2022-12-07T02:04:33;18.52;;;14.25;;
61915;SDS011;47868;51.326;6.550;2022-12-07T02:06:59;17.40;;;15.23;;
61915;SDS011;47868;51.326;6.550;2022-12-07T02:09:25;20.25;;;15.85;;
61915;SDS011;47868;51.326;6.550;2022-12-07T02:11:51;20.15;;;15.40;;
61915;SDS011;47868;51.326;6.550;2022-12-07T02:14:17;23.20;;;15.80;;
61915;SDS011;47868;51.326;6.550;2022-12-07T02:16:47;17.52;;;15.70;;
61915;SDS011;47868;51.326;6.550;2022-12-07T02:21:59;20.23;;;15.80;;
61915;SDS011;47868;51.326;6.550;2022-12-07T02:24:48;19.52;;;16.48;;
61915;SDS011;47868;51.326;6.550;2022-12-07T02:30:02;19.15;;;16.48;;
61915;SDS011;47868;51.326;6.550;2022-12-07T02:35:06;18.38;;;16.15;;
61915;SDS011;47868;51.326;6.550;2022-12-07T02:40:17;20.42;;;17.45;;
61915;SDS011;47868;51.326;6.550;2022-12-07T02:42:45;22.63;;;17.17;;
61915;SDS011;47868;51.326;6.550;2022-12-07T02:45:13;21.42;;;16.92;;
61915;SDS011;47868;51.326;6.550;2022-12-07T02:47:40;19.85;;;16.65;;
61915;SDS011;47868;51.326;6.550;2022-12-07T02:50:07;23.10;;;16.65;;
61915;SDS011;47868;51.326;6.550;2022-12-07T02:52:33;21.38;;;16.95;;
61915;SDS011;47868;51.326;6.550;2022-12-07T02:54:59;20.98;;;15.70;;
61915;SDS011;47868;51.326;6.550;2022-12-07T02:57:28;19.75;;;17.20;;
61915;SDS011;47868;51.326;6.550;2022-12-07T03:00:00;22.55;;;17.65;;
61915;SDS011;47868;51.326;6.550;2022-12-07T03:02:31;19.08;;;16.42;;
61915;SDS011;47868;51.326;6.550;2022-12-07T03:15:27;20.48;;;17.55;;
61915;SDS011;47868;51.326;6.550;2022-12-07T03:17:55;25.67;;;17.33;;
61915;SDS011;47868;51.326;6.550;2022-12-07T03:20:22;21.55;;;17.20;;
61915;SDS011;47868;51.326;6.550;2022-12-07T03:22:50;19.30;;;17.30;;
61915;SDS011;47868;51.326;6.550;2022-12-07T03:25:16;21.33;;;17.55;;
61915;SDS011;47868;51.326;6.550;2022-12-07T03:30:30;21.08;;;16.58;;
61915;SDS011;47868;51.326;6.550;2022-12-07T03:35:22;18.42;;;16.10;;
61915;SDS011;47868;51.326;6.550;2022-12-07T03:37:52;20.75;;;16.75;;
61915;SDS011;47868;51.326;6.550;2022-12-07T03:43:05;19.45;;;16.10;;
61915;SDS011;47868;51.326;6.550;2022-12-07T03:45:33;16.98;;;14.63;;
61915;SDS011;47868;51.326;6.550;2022-12-07T03:48:07;18.75;;;15.40;;
61915;SDS011;47868;51.326;6.550;2022-12-07T03:53:02;17.77;;;15.85;;
61915;SDS011;47868;51.326;6.550;2022-12-07T03:55:31;23.17;;;16.85;;
61915;SDS011;47868;51.326;6.550;2022-12-07T03:57:59;18.48;;;16.17;;
61915;SDS011;47868;51.326;6.550;2022-12-07T04:00:27;19.08;;;15.60;;
61915;SDS011;47868;51.326;6.550;2022-12-07T04:02:53;17.83;;;15.43;;
61915;SDS011;47868;51.326;6.550;2022-12-07T04:05:19;18.05;;;15.30;;
61915;SDS011;47868;51.326;6.550;2022-12-07T04:07:45;19.00;;;15.48;;
61915;SDS011;47868;51.326;6.550;2022-12-07T04:10:11;17.30;;;14.85;;
61915;SDS011;47868;51.326;6.550;2022-12-07T04:12:37;18.67;;;14.75;;
61915;SDS011;47868;51.326;6.550;2022-12-07T04:15:03;17.10;;;14.93;;
61915;SDS011;47868;51.326;6.550;2022-12-07T04:17:29;17.42;;;14.52;;
61915;SDS011;47868;51.326;6.550;2022-12-07T04:19:55;17.15;;;14.68;;
61915;SDS011;47868;51.326;6.550;2022-12-07T04:22:21;16.73;;;13.57;;
61915;SDS011;47868;51.326;6.550;2022-12-07T04:24:47;15.32;;;13.65;;
61915;SDS011;47868;51.326;6.550;2022-12-07T04:27:13;17.05;;;14.15;;
61915;SDS011;47868;51.326;6.550;2022-12-07T04:29:39;14.95;;;12.60;;
61915;SDS011;47868;51.326;6.550;2022-12-07T04:32:05;16.45;;;13.95;;
61915;SDS011;47868;51.326;6.550;2022-12-07T04:34:31;16.48;;;13.80;;
61915;SDS011;47868;51.326;6.550;2022-12-07T04:36:57;16.90;;;13.75;;
61915;SDS011;47868;51.326;6.550;2022-12-07T04:39:25;17.08;;;14.48;;
61915;SDS011;47868;51.326;6.550;2022-12-07T04:41:51;14.35;;;12.85;;
61915;SDS011;47868;51.326;6.550;2022-12-07T04:44:20;13.95;;;12.40;;
61915;SDS011;47868;51.326;6.550;2022-12-07T04:46:47;20.88;;;12.90;;
61915;SDS011;47868;51.326;6.550;2022-12-07T04:49:14;15.10;;;11.90;;
61915;SDS011;47868;51.326;6.550;2022-12-07T04:51:40;15.38;;;11.52;;
61915;SDS011;47868;51.326;6.550;2022-12-07T04:54:06;13.80;;;11.32;;
61915;SDS011;47868;51.326;6.550;2022-12-07T04:56:32;15.63;;;11.43;;
61915;SDS011;47868;51.326;6.550;2022-12-07T04:59:00;17.70;;;11.10;;
61915;SDS011;47868;51.326;6.550;2022-12-07T05:01:26;13.88;;;11.30;;
61915;SDS011;47868;51.326;6.550;2022-12-07T05:03:52;13.95;;;11.32;;
61915;SDS011;47868;51.326;6.550;2022-12-07T05:06:18;13.10;;;10.05;;
61915;SDS011;47868;51.326;6.550;2022-12-07T05:08:44;11.63;;;10.40;;
61915;SDS011;47868;51.326;6.550;2022-12-07T05:11:10;21.70;;;11.63;;
61915;SDS011;47868;51.326;6.550;2022-12-07T05:13:56;14.93;;;11.15;;
61915;SDS011;47868;51.326;6.550;2022-12-07T05:16:22;14.48;;;10.98;;
61915;SDS011;47868;51.326;6.550;2022-12-07T05:18:48;13.57;;;10.02;;
61915;SDS011;47868;51.326;6.550;2022-12-07T05:21:14;16.02;;;11.00;;
61915;SDS011;47868;51.326;6.550;2022-12-07T05:23:39;13.38;;;9.32;;
61915;SDS011;47868;51.326;6.550;2022-12-07T05:26:05;16.67;;;10.05;;
61915;SDS011;47868;51.326;6.550;2022-12-07T05:28:30;14.27;;;9.95;;
61915;SDS011;47868;51.326;6.550;2022-12-07T05:30:56;11.60;;;9.32;;
61915;SDS011;47868;51.326;6.550;2022-12-07T05:33:22;10.52;;;9.10;;
61915;SDS011;47868;51.326;6.550;2022-12-07T05:35:47;13.18;;;9.20;;
61915;SDS011;47868;51.326;6.550;2022-12-07T05:38:13;12.25;;;9.82;;
61915;SDS011;47868;51.326;6.550;2022-12-07T05:40:38;14.38;;;9.68;;
61915;SDS011;47868;51.326;6.550;2022-12-07T05:43:04;17.23;;;9.32;;
61915;SDS011;47868;51.326;6.550;2022-12-07T05:45:30;11.63;;;8.98;;
61915;SDS011;47868;51.326;6.550;2022-12-07T05:47:55;10.75;;;9.48;;
61915;SDS011;47868;51.326;6.550;2022-12-07T05:50:21;11.65;;;8.50;;
61915;SDS011;47868;51.326;6.550;2022-12-07T05:52:46;12.73;;;9.40;;
61915;SDS011;47868;51.326;6.550;2022-12-07T05:55:12;14.75;;;9.88;;
61915;SDS011;47868;51.326;6.550;2022-12-07T05:57:38;14.77;;;9.50;;
61915;SDS011;47868;51.326;6.550;2022-12-07T06:00:04;13.65;;;9.70;;
61915;SDS011;47868;51.326;6.550;2022-12-07T06:02:30;12.50;;;8.80;;
61915;SDS011;47868;51.326;6.550;2022-12-07T06:04:56;14.50;;;10.43;;
61915;SDS011;47868;51.326;6.550;2022-12-07T06:07:21;16.70;;;9.77;;
61915;SDS011;47868;51.326;6.550;2022-12-07T06:09:47;11.52;;;9.65;;
61915;SDS011;47868;51.326;6.550;2022-12-07T06:12:12;11.02;;;9.82;;
61915;SDS011;47868;51.326;6.550;2022-12-07T06:14:57;16.27;;;9.93;;
61915;SDS011;47868;51.326;6.550;2022-12-07T06:17:23;13.55;;;10.15;;
61915;SDS011;47868;51.326;6.550;2022-12-07T06:19:49;16.05;;;10.07;;
61915;SDS011;47868;51.326;6.550;2022-12-07T06:22:14;11.10;;;9.63;;
61915;SDS011;47868;51.326;6.550;2022-12-07T06:24:41;11.25;;;9.85;;
61915;SDS011;47868;51.326;6.550;2022-12-07T06:27:07;12.68;;;9.90;;
61915;SDS011;47868;51.326;6.550;2022-12-07T06:29:33;14.98;;;9.57;;
61915;SDS011;47868;51.326;6.550;2022-12-07T06:31:59;12.95;;;9.32;;
61915;SDS011;47868;51.326;6.550;2022-12-07T06:34:24;13.23;;;10.23;;
61915;SDS011;47868;51.326;6.550;2022-12-07T06:36:51;15.32;;;10.05;;
61915;SDS011;47868;51.326;6.550;2022-12-07T06:39:19;14.82;;;10.02;;
61915;SDS011;47868;51.326;6.550;2022-12-07T06:41:52;17.98;;;11.00;;
61915;SDS011;47868;51.326;6.550;2022-12-07T06:44:19;13.98;;;10.07;;
61915;SDS011;47868;51.326;6.550;2022-12-07T06:46:45;17.83;;;9.80;;
61915;SDS011;47868;51.326;6.550;2022-12-07T06:49:11;16.70;;;10.68;;
61915;SDS011;47868;51.326;6.550;2022-12-07T06:51:37;14.60;;;10.25;;
61915;SDS011;47868;51.326;6.550;2022-12-07T06:54:06;12.00;;;10.77;;
61915;SDS011;47868;51.326;6.550;2022-12-07T06:56:32;12.75;;;10.07;;
61915;SDS011;47868;51.326;6.550;2022-12-07T06:58:58;12.60;;;10.55;;
61915;SDS011;47868;51.326;6.550;2022-12-07T07:01:24;15.50;;;11.30;;
61915;SDS011;47868;51.326;6.550;2022-12-07T07:03:49;16.08;;;11.75;;
61915;SDS011;47868;51.326;6.550;2022-12-07T07:06:15;15.93;;;10.35;;
61915;SDS011;47868;51.326;6.550;2022-12-07T07:08:40;12.45;;;10.18;;
61915;SDS011;47868;51.326;6.550;2022-12-07T07:11:07;15.95;;;11.13;;
61915;SDS011;47868;51.326;6.550;2022-12-07T07:13:33;16.67;;;10.70;;
61915;SDS011;47868;51.326;6.550;2022-12-07T07:15:59;17.15;;;9.93;;
61915;SDS011;47868;51.326;6.550;2022-12-07T07:18:25;15.15;;;10.02;;
61915;SDS011;47868;51.326;6.550;2022-12-07T07:20:51;13.57;;;9.63;;
61915;SDS011;47868;51.326;6.550;2022-12-07T07:23:17;12.38;;;9.95;;
61915;SDS011;47868;51.326;6.550;2022-12-07T07:25:44;16.13;;;9.85;;
61915;SDS011;47868;51.326;6.550;2022-12-07T07:28:09;15.00;;;8.88;;
61915;SDS011;47868;51.326;6.550;2022-12-07T07:30:35;15.30;;;9.75;;
61915;SDS011;47868;51.326;6.550;2022-12-07T07:33:02;12.68;;;9.05;;
61915;SDS011;47868;51.326;6.550;2022-12-07T07:35:29;11.23;;;9.02;;
61915;SDS011;47868;51.326;6.550;2022-12-07T07:37:55;13.50;;;8.82;;
61915;SDS011;47868;51.326;6.550;2022-12-07T07:40:21;16.92;;;9.18;;
61915;SDS011;47868;51.326;6.550;2022-12-07T07:42:48;11.27;;;8.48;;
61915;SDS011;47868;51.326;6.550;2022-12-07T07:45:18;14.52;;;8.93;;
61915;SDS011;47868;51.326;6.550;2022-12-07T07:47:44;14.77;;;9.27;;
61915;SDS011;47868;51.326;6.550;2022-12-07T07:50:10;12.95;;;9.93;;
61915;SDS011;47868;51.326;6.550;2022-12-07T07:52:36;12.20;;;9.88;;
61915;SDS011;47868;51.326;6.550;2022-12-07T07:55:01;16.63;;;9.77;;
61915;SDS011;47868;51.326;6.550;2022-12-07T07:57:27;11.52;;;8.45;;
61915;SDS011;47868;51.326;6.550;2022-12-07T07:59:53;10.88;;;9.30;;
61915;SDS011;47868;51.326;6.550;2022-12-07T08:02:19;17.75;;;8.48;;
61915;SDS011;47868;51.326;6.550;2022-12-07T08:04:45;13.63;;;9.80;;
61915;SDS011;47868;51.326;6.550;2022-12-07T08:07:12;17.15;;;10.48;;
61915;SDS011;47868;51.326;6.550;2022-12-07T08:09:38;16.83;;;10.27;;
61915;SDS011;47868;51.326;6.550;2022-12-07T08:12:04;17.23;;;9.38;;
61915;SDS011;47868;51.326;6.550;2022-12-07T08:14:30;12.73;;;9.27;;
61915;SDS011;47868;51.326;6.550;2022-12-07T08:16:56;13.68;;;8.90;;
61915;SDS011;47868;51.326;6.550;2022-12-07T08:19:22;12.40;;;9.20;;
61915;SDS011;47868;51.326;6.550;2022-12-07T08:21:48;16.35;;;8.48;;
61915;SDS011;47868;51.326;6.550;2022-12-07T08:24:13;13.43;;;8.23;;
61915;SDS011;47868;51.326;6.550;2022-12-07T08:26:39;13.02;;;8.32;;
61915;SDS011;47868;51.326;6.550;2022-12-07T08:29:06;10.70;;;8.63;;
61915;SDS011;47868;51.326;6.550;2022-12-07T08:31:32;11.63;;;7.22;;
61915;SDS011;47868;51.326;6.550;2022-12-07T08:33:57;12.25;;;8.40;;
61915;SDS011;47868;51.326;6.550;2022-12-07T08:36:25;10.88;;;8.50;;
61915;SDS011;47868;51.326;6.550;2022-12-07T08:38:51;14.30;;;8.25;;
61915;SDS011;47868;51.326;6.550;2022-12-07T08:41:18;11.07;;;7.75;;
61915;SDS011;47868;51.326;6.550;2022-12-07T08:43:45;9.20;;;7.45;;
61915;SDS011;47868;51.326;6.550;2022-12-07T08:48:41;11.05;;;7.82;;
61915;SDS011;47868;51.326;6.550;2022-12-07T08:51:10;13.63;;;7.22;;
61915;SDS011;47868;51.326;6.550;2022-12-07T08:53:38;13.38;;;7.40;;
61915;SDS011;47868;51.326;6.550;2022-12-07T08:56:05;12.43;;;7.03;;
61915;SDS011;47868;51.326;6.550;2022-12-07T08:58:34;11.10;;;8.23;;
61915;SDS011;47868;51.326;6.550;2022-12-07T09:01:02;9.52;;;6.78;;
61915;SDS011;47868;51.326;6.550;2022-12-07T09:03:30;10.85;;;7.00;;
61915;SDS011;47868;51.326;6.550;2022-12-07T09:05:58;10.30;;;7.05;;
61915;SDS011;47868;51.326;6.550;2022-12-07T09:08:29;9.68;;;6.68;;
61915;SDS011;47868;51.326;6.550;2022-12-07T09:11:01;9.70;;;7.07;;
61915;SDS011;47868;51.326;6.550;2022-12-07T09:13:29;11.10;;;7.22;;
61915;SDS011;47868;51.326;6.550;2022-12-07T09:15:57;12.68;;;7.57;;
61915;SDS011;47868;51.326;6.550;2022-12-07T09:18:22;12.90;;;9.25;;
61915;SDS011;47868;51.326;6.550;2022-12-07T09:20:50;11.30;;;8.38;;
61915;SDS011;47868;51.326;6.550;2022-12-07T09:23:17;17.70;;;9.63;;
61915;SDS011;47868;51.326;6.550;2022-12-07T09:25:43;12.73;;;9.48;;
61915;SDS011;47868;51.326;6.550;2022-12-07T09:28:11;12.43;;;10.13;;
61915;SDS011;47868;51.326;6.550;2022-12-07T09:30:37;12.65;;;11.18;;
61915;SDS011;47868;51.326;6.550;2022-12-07T09:33:10;19.17;;;11.77;;
61915;SDS011;47868;51.326;6.550;2022-12-07T09:35:35;14.02;;;11.70;;
61915;SDS011;47868;51.326;6.550;2022-12-07T09:38:01;14.25;;;10.85;;
61915;SDS011;47868;51.326;6.550;2022-12-07T09:40:27;12.60;;;10.55;;
61915;SDS011;47868;51.326;6.550;2022-12-07T09:42:55;14.88;;;9.65;;
61915;SDS011;47868;51.326;6.550;2022-12-07T09:45:24;13.20;;;10.35;;
61915;SDS011;47868;51.326;6.550;2022-12-07T09:47:51;13.02;;;9.73;;
61915;SDS011;47868;51.326;6.550;2022-12-07T09:50:23;12.25;;;9.65;;
61915;SDS011;47868;51.326;6.550;2022-12-07T09:52:53;10.32;;;8.00;;
61915;SDS011;47868;51.326;6.550;2022-12-07T09:55:34;13.95;;;7.15;;
61915;SDS011;47868;51.326;6.550;2022-12-07T09:58:05;9.48;;;6.30;;
61915;SDS011;47868;51.326;6.550;2022-12-07T10:00:58;14.45;;;6.78;;
61915;SDS011;47868;51.326;6.550;2022-12-07T10:03:33;10.50;;;5.75;;
61915;SDS011;47868;51.326;6.550;2022-12-07T10:06:03;12.27;;;7.35;;
61915;SDS011;47868;51.326;6.550;2022-12-07T10:08:32;17.20;;;7.55;;
61915;SDS011;47868;51.326;6.550;2022-12-07T10:11:01;12.02;;;6.90;;
61915;SDS011;47868;51.326;6.550;2022-12-07T10:13:39;13.27;;;6.32;;
61915;SDS011;47868;51.326;6.550;2022-12-07T10:16:06;16.58;;;6.55;;
61915;SDS011;47868;51.326;6.550;2022-12-07T10:18:49;7.88;;;5.93;;
61915;SDS011;47868;51.326;6.550;2022-12-07T10:21:18;15.32;;;5.68;;
61915;SDS011;47868;51.326;6.550;2022-12-07T10:26:30;8.93;;;6.72;;
61915;SDS011;47868;51.326;6.550;2022-12-07T10:29:15;10.57;;;6.63;;
61915;SDS011;47868;51.326;6.550;2022-12-07T10:31:42;12.63;;;6.72;;
61915;SDS011;47868;51.326;6.550;2022-12-07T10:36:48;13.80;;;7.28;;
61915;SDS011;47868;51.326;6.550;2022-12-07T10:39:18;14.60;;;6.93;;
61915;SDS011;47868;51.326;6.550;2022-12-07T10:44:30;9.25;;;6.88;;
61915;SDS011;47868;51.326;6.550;2022-12-07T11:07:53;11.93;;;6.57;;
61915;SDS011;47868;51.326;6.550;2022-12-07T11:13:28;13.45;;;5.68;;
61915;SDS011;47868;51.326;6.550;2022-12-07T11:21:15;9.38;;;5.75;;
61915;SDS011;47868;51.326;6.550;2022-12-07T11:23:49;9.95;;;5.75;;
61915;SDS011;47868;51.326;6.550;2022-12-07T11:31:18;11.90;;;5.90;;
61915;SDS011;47868;51.326;6.550;2022-12-07T11:36:40;7.68;;;4.78;;
61915;SDS011;47868;51.326;6.550;2022-12-07T11:39:16;9.98;;;5.05;;
61915;SDS011;47868;51.326;6.550;2022-12-07T11:42:09;14.27;;;5.57;;
61915;SDS011;47868;51.326;6.550;2022-12-07T11:50:16;8.38;;;4.63;;
61915;SDS011;47868;51.326;6.550;2022-12-07T11:55:52;13.15;;;5.78;;
61915;SDS011;47868;51.326;6.550;2022-12-07T12:00:46;9.55;;;5.00;;
61915;SDS011;47868;51.326;6.550;2022-12-07T12:03:30;14.30;;;5.32;;
61915;SDS011;47868;51.326;6.550;2022-12-07T12:06:03;7.63;;;4.15;;
61915;SDS011;47868;51.326;6.550;2022-12-07T12:08:35;13.20;;;5.30;;
61915;SDS011;47868;51.326;6.550;2022-12-07T12:11:20;11.10;;;5.07;;
61915;SDS011;47868;51.326;6.550;2022-12-07T12:22:42;8.43;;;4.28;;
61915;SDS011;47868;51.326;6.550;2022-12-07T12:25:18;9.02;;;4.38;;
61915;SDS011;47868;51.326;6.550;2022-12-07T12:27:53;11.82;;;4.28;;
61915;SDS011;47868;51.326;6.550;2022-12-07T12:30:39;11.63;;;4.47;;
61915;SDS011;47868;51.326;6.550;2022-12-07T12:36:17;8.18;;;3.72;;
61915;SDS011;47868;51.326;6.550;2022-12-07T12:47:03;11.80;;;3.72;;
61915;SDS011;47868;51.326;6.550;2022-12-07T12:49:42;5.15;;;3.55;;
61915;SDS011;47868;51.326;6.550;2022-12-07T12:57:38;7.93;;;3.70;;
61915;SDS011;47868;51.326;6.550;2022-12-07T13:02:48;12.10;;;4.07;;
61915;SDS011;47868;51.326;6.550;2022-12-07T13:17:58;12.43;;;3.97;;
61915;SDS011;47868;51.326;6.550;2022-12-07T13:23:19;9.30;;;3.80;;
61915;SDS011;47868;51.326;6.550;2022-12-07T13:28:41;9.35;;;3.58;;
61915;SDS011;47868;51.326;6.550;2022-12-07T13:34:00;9.82;;;3.78;;
61915;SDS011;47868;51.326;6.550;2022-12-07T13:36:29;7.43;;;4.10;;
61915;SDS011;47868;51.326;6.550;2022-12-07T13:39:00;9.93;;;4.18;;
61915;SDS011;47868;51.326;6.550;2022-12-07T13:41:42;8.43;;;3.53;;
61915;SDS011;47868;51.326;6.550;2022-12-07T13:44:12;6.10;;;3.22;;
61915;SDS011;47868;51.326;6.550;2022-12-07T13:46:51;9.30;;;4.57;;
61915;SDS011;47868;51.326;6.550;2022-12-07T13:49:18;11.77;;;4.60;;
61915;SDS011;47868;51.326;6.550;2022-12-07T13:51:48;10.30;;;5.05;;
61915;SDS011;47868;51.326;6.550;2022-12-07T13:54:15;7.75;;;4.30;;
61915;SDS011;47868;51.326;6.550;2022-12-07T13:56:42;12.20;;;4.68;;
61915;SDS011;47868;51.326;6.550;2022-12-07T13:59:15;11.73;;;3.90;;
61915;SDS011;47868;51.326;6.550;2022-12-07T14:01:47;13.93;;;4.80;;
61915;SDS011;47868;51.326;6.550;2022-12-07T14:04:18;5.93;;;4.10;;
61915;SDS011;47868;51.326;6.550;2022-12-07T14:06:51;12.68;;;5.05;;
61915;SDS011;47868;51.326;6.550;2022-12-07T14:09:18;9.20;;;5.20;;
61915;SDS011;47868;51.326;6.550;2022-12-07T14:11:49;10.20;;;4.63;;
61915;SDS011;47868;51.326;6.550;2022-12-07T14:14:17;17.55;;;5.03;;
61915;SDS011;47868;51.326;6.550;2022-12-07T14:27:30;12.13;;;4.40;;
61915;SDS011;47868;51.326;6.550;2022-12-07T14:29:59;12.85;;;5.00;;
61915;SDS011;47868;51.326;6.550;2022-12-07T14:32:27;9.00;;;5.00;;
61915;SDS011;47868;51.326;6.550;2022-12-07T14:35:07;8.65;;;5.35;;
61915;SDS011;47868;51.326;6.550;2022-12-07T14:37:35;11.75;;;5.20;;
61915;SDS011;47868;51.326;6.550;2022-12-07T14:40:02;8.40;;;4.90;;
61915;SDS011;47868;51.326;6.550;2022-12-07T14:42:28;11.32;;;4.80;;
61915;SDS011;47868;51.326;6.550;2022-12-07T14:44:56;7.47;;;4.22;;
61915;SDS011;47868;51.326;6.550;2022-12-07T14:47:23;8.02;;;4.32;;
61915;SDS011;47868;51.326;6.550;2022-12-07T14:49:52;9.52;;;4.53;;
61915;SDS011;47868;51.326;6.550;2022-12-07T14:52:19;10.32;;;4.43;;
61915;SDS011;47868;51.326;6.550;2022-12-07T14:54:47;8.85;;;4.18;;
61915;SDS011;47868;51.326;6.550;2022-12-07T14:57:13;12.65;;;4.55;;
61915;SDS011;47868;51.326;6.550;2022-12-07T14:59:39;6.53;;;4.10;;
61915;SDS011;47868;51.326;6.550;2022-12-07T15:02:05;9.88;;;4.10;;
61915;SDS011;47868;51.326;6.550;2022-12-07T15:04:32;8.07;;;4.13;;
61915;SDS011;47868;51.326;6.550;2022-12-07T15:06:58;9.55;;;4.88;;
61915;SDS011;47868;51.326;6.550;2022-12-07T15:09:26;18.95;;;5.63;;
61915;SDS011;47868;51.326;6.550;2022-12-07T15:11:52;9.93;;;4.53;;
61915;SDS011;47868;51.326;6.550;2022-12-07T15:14:17;14.40;;;5.45;;
61915;SDS011;47868;51.326;6.550;2022-12-07T15:16:46;8.85;;;4.20;;
61915;SDS011;47868;51.326;6.550;2022-12-07T15:19:12;9.05;;;3.55;;
61915;SDS011;47868;51.326;6.550;2022-12-07T15:21:42;11.23;;;4.00;;
61915;SDS011;47868;51.326;6.550;2022-12-07T15:24:11;8.35;;;4.05;;
61915;SDS011;47868;51.326;6.550;2022-12-07T15:26:38;8.23;;;4.43;;
61915;SDS011;47868;51.326;6.550;2022-12-07T15:29:05;11.85;;;4.40;;
61915;SDS011;47868;51.326;6.550;2022-12-07T15:31:31;6.70;;;3.85;;
61915;SDS011;47868;51.326;6.550;2022-12-07T15:34:00;10.38;;;5.05;;
61915;SDS011;47868;51.326;6.550;2022-12-07T15:36:28;8.57;;;4.70;;
61915;SDS011;47868;51.326;6.550;2022-12-07T15:38:55;14.93;;;4.97;;
61915;SDS011;47868;51.326;6.550;2022-12-07T15:41:21;12.50;;;5.28;;
61915;SDS011;47868;51.326;6.550;2022-12-07T15:43:48;21.70;;;4.78;;
61915;SDS011;47868;51.326;6.550;2022-12-07T15:46:35;10.85;;;4.07;;
61915;SDS011;47868;51.326;6.550;2022-12-07T15:49:03;12.38;;;4.25;;
61915;SDS011;47868;51.326;6.550;2022-12-07T15:51:29;9.93;;;4.22;;
61915;SDS011;47868;51.326;6.550;2022-12-07T15:53:56;15.05;;;4.15;;
61915;SDS011;47868;51.326;6.550;2022-12-07T15:56:23;10.18;;;4.93;;
61915;SDS011;47868;51.326;6.550;2022-12-07T15:58:48;9.10;;;4.05;;
61915;SDS011;47868;51.326;6.550;2022-12-07T16:01:15;8.45;;;4.45;;
61915;SDS011;47868;51.326;6.550;2022-12-07T16:03:42;11.40;;;4.70;;
61915;SDS011;47868;51.326;6.550;2022-12-07T16:06:08;12.55;;;5.25;;
61915;SDS011;47868;51.326;6.550;2022-12-07T16:08:34;11.52;;;5.88;;
61915;SDS011;47868;51.326;6.550;2022-12-07T16:11:04;18.23;;;6.05;;
61915;SDS011;47868;51.326;6.550;2022-12-07T16:13:33;11.35;;;5.63;;
61915;SDS011;47868;51.326;6.550;2022-12-07T16:16:07;12.60;;;4.90;;
61915;SDS011;47868;51.326;6.550;2022-12-07T16:18:35;10.68;;;5.40;;
61915;SDS011;47868;51.326;6.550;2022-12-07T16:21:00;11.48;;;5.57;;
61915;SDS011;47868;51.326;6.550;2022-12-07T16:23:27;13.70;;;5.97;;
61915;SDS011;47868;51.326;6.550;2022-12-07T16:25:53;9.90;;;5.70;;
61915;SDS011;47868;51.326;6.550;2022-12-07T16:28:19;16.17;;;5.18;;
61915;SDS011;47868;51.326;6.550;2022-12-07T16:30:45;8.60;;;4.35;;
61915;SDS011;47868;51.326;6.550;2022-12-07T16:33:10;10.98;;;5.97;;
61915;SDS011;47868;51.326;6.550;2022-12-07T16:35:39;8.90;;;5.80;;
61915;SDS011;47868;51.326;6.550;2022-12-07T16:38:07;9.68;;;5.68;;
61915;SDS011;47868;51.326;6.550;2022-12-07T16:40:32;10.70;;;5.93;;
61915;SDS011;47868;51.326;6.550;2022-12-07T16:42:58;12.93;;;6.20;;
61915;SDS011;47868;51.326;6.550;2022-12-07T16:45:23;14.73;;;7.05;;
61915;SDS011;47868;51.326;6.550;2022-12-07T16:47:49;11.80;;;6.20;;
61915;SDS011;47868;51.326;6.550;2022-12-07T16:50:15;9.68;;;6.53;;
61915;SDS011;47868;51.326;6.550;2022-12-07T16:52:40;10.30;;;6.47;;
61915;SDS011;47868;51.326;6.550;2022-12-07T16:55:06;12.60;;;6.25;;
61915;SDS011;47868;51.326;6.550;2022-12-07T16:57:33;11.63;;;6.70;;
61915;SDS011;47868;51.326;6.550;2022-12-07T16:59:59;9.80;;;6.32;;
61915;SDS011;47868;51.326;6.550;2022-12-07T17:02:25;9.70;;;6.90;;
61915;SDS011;47868;51.326;6.550;2022-12-07T17:04:50;13.93;;;6.38;;
61915;SDS011;47868;51.326;6.550;2022-12-07T17:07:16;9.75;;;6.13;;
61915;SDS011;47868;51.326;6.550;2022-12-07T17:09:42;10.52;;;6.20;;